sensor_id;sensor_type;location;lat;lon;timestamp;pressure;altitude;pressure_sealevel;temperature;humidity
77047;BME280;65977;56.380;44.022;2023-03-03T00:01:16;99097.34;;;-1.09;57.82
77047;BME280;65977;56.380;44.022;2023-03-03T00:03:43;99098.09;;;-1.07;58.00
77047;BME280;65977;56.380;44.022;2023-03-03T00:06:12;99088.66;;;-1.08;58.03
77047;BME280;65977;56.380;44.022;2023-03-03T00:08:39;99086.16;;;-1.09;58.20
77047;BME280;65977;56.380;44.022;2023-03-03T00:11:07;99083.56;;;-1.09;58.37
77047;BME280;65977;56.380;44.022;2023-03-03T00:13:53;99087.25;;;-1.13;59.23
77047;BME280;65977;56.380;44.022;2023-03-03T00:16:38;99088.47;;;-1.19;59.20
77047;BME280;65977;56.380;44.022;2023-03-03T00:19:14;99082.25;;;-1.16;59.02
77047;BME280;65977;56.380;44.022;2023-03-03T00:21:56;99074.59;;;-1.18;58.83
77047;BME280;65977;56.380;44.022;2023-03-03T00:24:34;99078.94;;;-1.18;58.77
77047;BME280;65977;56.380;44.022;2023-03-03T00:27:16;99080.63;;;-1.17;59.29
77047;BME280;65977;56.380;44.022;2023-03-03T00:29:49;99070.97;;;-1.15;59.12
77047;BME280;65977;56.380;44.022;2023-03-03T00:32:35;99070.06;;;-1.14;58.34
77047;BME280;65977;56.380;44.022;2023-03-03T00:35:25;99069.41;;;-1.18;58.90
77047;BME280;65977;56.380;44.022;2023-03-03T00:38:01;99057.84;;;-1.12;58.93
77047;BME280;65977;56.380;44.022;2023-03-03T00:40:36;99057.91;;;-1.14;60.02
77047;BME280;65977;56.380;44.022;2023-03-03T00:43:22;99056.81;;;-1.10;59.14
77047;BME280;65977;56.380;44.022;2023-03-03T00:45:51;99054.78;;;-1.05;59.43
77047;BME280;65977;56.380;44.022;2023-03-03T00:48:26;99056.34;;;-1.02;59.59
77047;BME280;65977;56.380;44.022;2023-03-03T00:50:56;99053.44;;;-0.98;58.72
77047;BME280;65977;56.380;44.022;2023-03-03T00:53:25;99048.25;;;-0.98;58.76
77047;BME280;65977;56.380;44.022;2023-03-03T00:55:53;99049.00;;;-0.96;59.52
77047;BME280;65977;56.380;44.022;2023-03-03T00:58:21;99047.25;;;-0.95;59.21
77047;BME280;65977;56.380;44.022;2023-03-03T01:00:51;99038.63;;;-0.96;59.43
77047;BME280;65977;56.380;44.022;2023-03-03T01:03:23;99039.47;;;-0.95;60.10
77047;BME280;65977;56.380;44.022;2023-03-03T01:05:51;99036.69;;;-0.92;59.42
77047;BME280;65977;56.380;44.022;2023-03-03T01:08:19;99029.44;;;-0.87;59.58
77047;BME280;65977;56.380;44.022;2023-03-03T01:10:52;99034.34;;;-0.83;59.25
77047;BME280;65977;56.380;44.022;2023-03-03T01:13:26;99029.16;;;-0.83;58.90
77047;BME280;65977;56.380;44.022;2023-03-03T01:15:54;99021.00;;;-0.77;58.65
77047;BME280;65977;56.380;44.022;2023-03-03T01:18:21;99019.19;;;-0.76;58.75
77047;BME280;65977;56.380;44.022;2023-03-03T01:20:48;99004.97;;;-0.83;59.29
77047;BME280;65977;56.380;44.022;2023-03-03T01:23:16;99021.41;;;-0.70;58.72
77047;BME280;65977;56.380;44.022;2023-03-03T01:25:43;99020.19;;;-0.65;59.02
77047;BME280;65977;56.380;44.022;2023-03-03T01:28:10;99019.16;;;-0.62;58.76
77047;BME280;65977;56.380;44.022;2023-03-03T01:30:37;99013.78;;;-0.59;59.19
77047;BME280;65977;56.380;44.022;2023-03-03T01:33:05;99017.09;;;-0.57;60.07
77047;BME280;65977;56.380;44.022;2023-03-03T01:35:32;99011.53;;;-0.51;59.09
77047;BME280;65977;56.380;44.022;2023-03-03T01:37:59;99017.44;;;-0.49;59.38
77047;BME280;65977;56.380;44.022;2023-03-03T01:40:28;99009.25;;;-0.43;58.89
77047;BME280;65977;56.380;44.022;2023-03-03T01:42:58;98994.09;;;-0.49;58.65
77047;BME280;65977;56.380;44.022;2023-03-03T01:45:28;99011.63;;;-0.40;58.99
77047;BME280;65977;56.380;44.022;2023-03-03T01:48:24;99015.72;;;-0.36;59.11
77047;BME280;65977;56.380;44.022;2023-03-03T01:51:01;99008.75;;;-0.35;58.81
77047;BME280;65977;56.380;44.022;2023-03-03T01:53:36;99003.53;;;-0.35;59.83
77047;BME280;65977;56.380;44.022;2023-03-03T01:56:06;98997.44;;;-0.34;59.25
77047;BME280;65977;56.380;44.022;2023-03-03T01:58:37;98992.97;;;-0.32;59.55
77047;BME280;65977;56.380;44.022;2023-03-03T02:01:11;98988.41;;;-0.29;59.56
77047;BME280;65977;56.380;44.022;2023-03-03T02:03:42;98987.59;;;-0.29;59.70
77047;BME280;65977;56.380;44.022;2023-03-03T02:06:13;98984.59;;;-0.23;59.57
77047;BME280;65977;56.380;44.022;2023-03-03T02:11:12;98989.47;;;-0.19;59.26
77047;BME280;65977;56.380;44.022;2023-03-03T02:13:39;98982.41;;;-0.17;60.17
77047;BME280;65977;56.380;44.022;2023-03-03T02:16:06;98977.94;;;-0.15;59.20
77047;BME280;65977;56.380;44.022;2023-03-03T02:18:34;98976.06;;;-0.13;59.05
77047;BME280;65977;56.380;44.022;2023-03-03T02:21:13;98984.59;;;-0.11;60.19
77047;BME280;65977;56.380;44.022;2023-03-03T02:26:49;98972.03;;;-0.04;58.97
77047;BME280;65977;56.380;44.022;2023-03-03T02:29:16;98984.28;;;-0.06;59.86
77047;BME280;65977;56.380;44.022;2023-03-03T02:31:43;98962.88;;;-0.10;59.32
77047;BME280;65977;56.380;44.022;2023-03-03T02:34:10;98970.16;;;-0.02;59.34
77047;BME280;65977;56.380;44.022;2023-03-03T02:36:38;98969.31;;;-0.03;59.75
77047;BME280;65977;56.380;44.022;2023-03-03T02:39:22;98971.72;;;0.00;59.84
77047;BME280;65977;56.380;44.022;2023-03-03T02:44:23;98971.72;;;0.00;60.36
77047;BME280;65977;56.380;44.022;2023-03-03T02:46:52;98973.19;;;0.05;59.78
77047;BME280;65977;56.380;44.022;2023-03-03T02:49:23;98966.81;;;0.09;60.13
77047;BME280;65977;56.380;44.022;2023-03-03T02:51:51;98978.78;;;0.11;59.69
77047;BME280;65977;56.380;44.022;2023-03-03T02:54:20;98965.69;;;0.13;59.73
77047;BME280;65977;56.380;44.022;2023-03-03T02:56:47;98959.88;;;0.09;60.25
77047;BME280;65977;56.380;44.022;2023-03-03T02:59:15;98958.94;;;0.10;59.86
77047;BME280;65977;56.380;44.022;2023-03-03T03:01:42;98964.75;;;0.14;59.46
77047;BME280;65977;56.380;44.022;2023-03-03T03:04:13;98952.72;;;0.13;60.12
77047;BME280;65977;56.380;44.022;2023-03-03T03:06:41;98967.25;;;0.15;60.04
77047;BME280;65977;56.380;44.022;2023-03-03T03:09:09;98962.78;;;0.17;60.32
77047;BME280;65977;56.380;44.022;2023-03-03T03:11:37;98959.47;;;0.15;60.03
77047;BME280;65977;56.380;44.022;2023-03-03T03:14:08;98941.56;;;0.11;60.14
77047;BME280;65977;56.380;44.022;2023-03-03T03:16:36;98947.91;;;0.19;59.84
77047;BME280;65977;56.380;44.022;2023-03-03T03:19:04;98945.44;;;0.18;60.01
77047;BME280;65977;56.380;44.022;2023-03-03T03:21:31;98946.16;;;0.20;59.71
77047;BME280;65977;56.380;44.022;2023-03-03T03:23:59;98940.97;;;0.20;59.54
77047;BME280;65977;56.380;44.022;2023-03-03T03:26:26;98947.72;;;0.22;59.91
77047;BME280;65977;56.380;44.022;2023-03-03T03:28:53;98954.47;;;0.25;59.74
77047;BME280;65977;56.380;44.022;2023-03-03T03:31:20;98948.22;;;0.27;59.71
77047;BME280;65977;56.380;44.022;2023-03-03T03:33:47;98949.88;;;0.28;59.60
77047;BME280;65977;56.380;44.022;2023-03-03T03:36:15;98952.16;;;0.33;58.88
77047;BME280;65977;56.380;44.022;2023-03-03T03:38:42;98956.41;;;0.34;59.19
77047;BME280;65977;56.380;44.022;2023-03-03T03:41:10;98954.53;;;0.36;59.03
77047;BME280;65977;56.380;44.022;2023-03-03T03:43:38;98951.22;;;0.34;59.58
77047;BME280;65977;56.380;44.022;2023-03-03T03:46:05;98952.88;;;0.35;59.93
77047;BME280;65977;56.380;44.022;2023-03-03T03:48:32;98960.47;;;0.38;59.57
77047;BME280;65977;56.380;44.022;2023-03-03T03:50:59;98960.47;;;0.38;59.77
77047;BME280;65977;56.380;44.022;2023-03-03T03:53:26;98960.56;;;0.36;59.64
77047;BME280;65977;56.380;44.022;2023-03-03T03:55:53;98962.75;;;0.42;59.52
77047;BME280;65977;56.380;44.022;2023-03-03T03:58:20;98956.91;;;0.39;59.52
77047;BME280;65977;56.380;44.022;2023-03-03T04:00:47;98961.78;;;0.43;59.20
77047;BME280;65977;56.380;44.022;2023-03-03T04:03:15;98945.81;;;0.37;60.18
77047;BME280;65977;56.380;44.022;2023-03-03T04:05:42;98962.28;;;0.48;60.10
77047;BME280;65977;56.380;44.022;2023-03-03T04:08:09;98966.25;;;0.54;59.46
77047;BME280;65977;56.380;44.022;2023-03-03T04:10:36;98957.09;;;0.48;60.54
77047;BME280;65977;56.380;44.022;2023-03-03T04:13:04;98955.34;;;0.49;59.37
77047;BME280;65977;56.380;44.022;2023-03-03T04:15:33;98956.69;;;0.54;60.47
77047;BME280;65977;56.380;44.022;2023-03-03T04:18:00;98965.63;;;0.63;59.17
77047;BME280;65977;56.380;44.022;2023-03-03T04:20:27;98960.91;;;0.68;59.14
77047;BME280;65977;56.380;44.022;2023-03-03T04:22:54;98964.34;;;0.69;59.26
77047;BME280;65977;56.380;44.022;2023-03-03T04:25:23;98957.16;;;0.72;59.18
77047;BME280;65977;56.380;44.022;2023-03-03T04:27:50;98962.84;;;0.77;59.06
77047;BME280;65977;56.380;44.022;2023-03-03T04:30:18;98955.06;;;0.77;58.90
77047;BME280;65977;56.380;44.022;2023-03-03T04:32:49;98957.94;;;0.85;58.44
77047;BME280;65977;56.380;44.022;2023-03-03T04:35:20;98957.72;;;0.88;58.89
77047;BME280;65977;56.380;44.022;2023-03-03T04:37:47;98959.16;;;0.92;58.55
77047;BME280;65977;56.380;44.022;2023-03-03T04:40:14;98957.88;;;0.98;58.73
77047;BME280;65977;56.380;44.022;2023-03-03T04:42:43;98966.31;;;1.01;58.85
77047;BME280;65977;56.380;44.022;2023-03-03T04:45:10;98965.13;;;1.05;58.70
77047;BME280;65977;56.380;44.022;2023-03-03T04:47:37;98963.88;;;1.11;58.59
77047;BME280;65977;56.380;44.022;2023-03-03T04:50:05;98965.63;;;1.10;58.59
77047;BME280;65977;56.380;44.022;2023-03-03T04:52:32;98963.03;;;1.10;58.88
77047;BME280;65977;56.380;44.022;2023-03-03T04:54:59;98971.34;;;1.15;58.46
77047;BME280;65977;56.380;44.022;2023-03-03T04:57:28;98971.00;;;1.20;58.41
77047;BME280;65977;56.380;44.022;2023-03-03T04:59:55;98984.63;;;1.23;58.73
77047;BME280;65977;56.380;44.022;2023-03-03T05:02:22;98978.38;;;1.26;58.67
77047;BME280;65977;56.380;44.022;2023-03-03T05:04:49;98977.31;;;1.28;58.21
77047;BME280;65977;56.380;44.022;2023-03-03T05:07:17;98987.50;;;1.32;58.43
77047;BME280;65977;56.380;44.022;2023-03-03T05:09:44;98983.00;;;1.34;58.78
77047;BME280;65977;56.380;44.022;2023-03-03T05:12:11;98980.06;;;1.38;58.27
77047;BME280;65977;56.380;44.022;2023-03-03T05:14:38;98982.94;;;1.46;58.59
77047;BME280;65977;56.380;44.022;2023-03-03T05:17:06;98981.44;;;1.55;58.38
77047;BME280;65977;56.380;44.022;2023-03-03T05:19:33;98985.34;;;1.60;58.01
77047;BME280;65977;56.380;44.022;2023-03-03T05:22:00;98981.94;;;1.71;58.20
77047;BME280;65977;56.380;44.022;2023-03-03T05:24:27;98988.13;;;1.81;58.29
77047;BME280;65977;56.380;44.022;2023-03-03T05:26:55;98985.69;;;1.90;57.72
77047;BME280;65977;56.380;44.022;2023-03-03T05:29:22;98990.06;;;2.01;57.43
77047;BME280;65977;56.380;44.022;2023-03-03T05:31:49;98985.94;;;2.10;57.02
77047;BME280;65977;56.380;44.022;2023-03-03T05:34:16;98985.34;;;2.17;56.76
77047;BME280;65977;56.380;44.022;2023-03-03T05:36:43;98990.34;;;2.31;56.59
77047;BME280;65977;56.380;44.022;2023-03-03T05:39:10;98986.09;;;2.41;55.79
77047;BME280;65977;56.380;44.022;2023-03-03T05:41:37;98984.53;;;2.50;55.57
77047;BME280;65977;56.380;44.022;2023-03-03T05:44:04;98987.16;;;2.61;55.62
77047;BME280;65977;56.380;44.022;2023-03-03T05:46:32;98989.03;;;2.70;54.74
77047;BME280;65977;56.380;44.022;2023-03-03T05:48:59;98988.78;;;2.73;54.43
77047;BME280;65977;56.380;44.022;2023-03-03T05:51:26;98993.88;;;2.75;54.62
77047;BME280;65977;56.380;44.022;2023-03-03T05:53:53;98975.41;;;2.67;54.64
77047;BME280;65977;56.380;44.022;2023-03-03T05:56:22;98982.03;;;2.82;54.53
77047;BME280;65977;56.380;44.022;2023-03-03T05:58:49;98982.34;;;2.88;54.16
77047;BME280;65977;56.380;44.022;2023-03-03T06:01:16;98985.56;;;2.92;54.01
77047;BME280;65977;56.380;44.022;2023-03-03T06:03:43;98985.44;;;2.93;53.85
77047;BME280;65977;56.380;44.022;2023-03-03T06:06:10;98995.38;;;2.99;53.73
77047;BME280;65977;56.380;44.022;2023-03-03T06:08:39;98991.56;;;3.03;53.36
77047;BME280;65977;56.380;44.022;2023-03-03T06:11:06;98987.50;;;3.10;53.43
77047;BME280;65977;56.380;44.022;2023-03-03T06:13:33;98991.19;;;3.19;53.70
77047;BME280;65977;56.380;44.022;2023-03-03T06:16:00;98984.13;;;3.31;53.26
77047;BME280;65977;56.380;44.022;2023-03-03T06:18:28;98982.31;;;3.42;52.75
77047;BME280;65977;56.380;44.022;2023-03-03T06:20:55;98988.75;;;3.59;52.25
77047;BME280;65977;56.380;44.022;2023-03-03T06:23:21;98987.69;;;3.82;52.29
77047;BME280;65977;56.380;44.022;2023-03-03T06:25:49;98986.63;;;4.05;52.08
77047;BME280;65977;56.380;44.022;2023-03-03T06:28:16;98978.59;;;4.27;51.09
77047;BME280;65977;56.380;44.022;2023-03-03T06:30:43;98986.13;;;4.41;50.77
77047;BME280;65977;56.380;44.022;2023-03-03T06:33:10;98988.53;;;4.54;50.49
77047;BME280;65977;56.380;44.022;2023-03-03T06:35:37;98984.97;;;4.65;50.48
77047;BME280;65977;56.380;44.022;2023-03-03T06:38:04;98985.16;;;4.73;49.46
77047;BME280;65977;56.380;44.022;2023-03-03T06:40:31;98982.66;;;4.81;49.43
77047;BME280;65977;56.380;44.022;2023-03-03T06:42:58;98981.31;;;4.86;49.57
77047;BME280;65977;56.380;44.022;2023-03-03T06:45:25;98981.38;;;5.05;49.25
77047;BME280;65977;56.380;44.022;2023-03-03T06:47:52;98987.63;;;5.24;48.65
77047;BME280;65977;56.380;44.022;2023-03-03T06:50:23;98987.63;;;5.43;48.19
77047;BME280;65977;56.380;44.022;2023-03-03T06:53:05;98985.66;;;5.54;48.06
77047;BME280;65977;56.380;44.022;2023-03-03T06:55:37;98980.47;;;5.64;47.13
77047;BME280;65977;56.380;44.022;2023-03-03T06:58:16;98988.00;;;5.67;46.98
77047;BME280;65977;56.380;44.022;2023-03-03T07:00:52;98985.53;;;5.65;47.26
77047;BME280;65977;56.380;44.022;2023-03-03T07:03:26;98990.22;;;5.62;47.67
77047;BME280;65977;56.380;44.022;2023-03-03T07:05:55;98984.88;;;5.54;47.72
77047;BME280;65977;56.380;44.022;2023-03-03T07:08:23;98999.50;;;5.56;47.54
77047;BME280;65977;56.380;44.022;2023-03-03T07:10:51;98997.00;;;5.55;47.81
77047;BME280;65977;56.380;44.022;2023-03-03T07:13:22;98995.75;;;5.49;47.74
77047;BME280;65977;56.380;44.022;2023-03-03T07:15:51;99001.13;;;5.48;47.65
77047;BME280;65977;56.380;44.022;2023-03-03T07:18:30;98997.16;;;5.44;47.44
77047;BME280;65977;56.380;44.022;2023-03-03T07:21:11;98997.41;;;5.31;48.06
77047;BME280;65977;56.380;44.022;2023-03-03T07:23:40;98990.34;;;5.22;47.94
77047;BME280;65977;56.380;44.022;2023-03-03T07:26:12;98997.94;;;5.25;47.57
77047;BME280;65977;56.380;44.022;2023-03-03T07:28:42;98975.16;;;5.06;48.00
77047;BME280;65977;56.380;44.022;2023-03-03T07:31:25;98997.78;;;5.17;48.15
77047;BME280;65977;56.380;44.022;2023-03-03T07:33:54;99001.38;;;5.16;48.13
77047;BME280;65977;56.380;44.022;2023-03-03T07:36:34;99002.75;;;5.10;48.29
77047;BME280;65977;56.380;44.022;2023-03-03T07:39:52;99006.03;;;5.13;48.06
77047;BME280;65977;56.380;44.022;2023-03-03T07:44:57;99000.66;;;5.14;48.18
77047;BME280;65977;56.380;44.022;2023-03-03T07:47:26;99004.41;;;5.21;48.04
77047;BME280;65977;56.380;44.022;2023-03-03T07:49:55;98997.25;;;5.23;48.31
77047;BME280;65977;56.380;44.022;2023-03-03T07:52:47;99006.22;;;5.30;47.79
77047;BME280;65977;56.380;44.022;2023-03-03T07:55:32;99004.69;;;5.28;48.22
77047;BME280;65977;56.380;44.022;2023-03-03T08:03:19;99005.81;;;5.44;47.87
77047;BME280;65977;56.380;44.022;2023-03-03T08:05:47;99009.25;;;5.54;47.77
77047;BME280;65977;56.380;44.022;2023-03-03T08:08:34;99007.88;;;5.69;48.00
77047;BME280;65977;56.380;44.022;2023-03-03T08:11:03;99008.56;;;5.81;47.49
77047;BME280;65977;56.380;44.022;2023-03-03T08:18:45;99003.44;;;6.18;46.48
77047;BME280;65977;56.380;44.022;2023-03-03T08:21:24;99013.66;;;6.21;46.19
77047;BME280;65977;56.380;44.022;2023-03-03T08:23:52;99008.28;;;6.22;46.20
77047;BME280;65977;56.380;44.022;2023-03-03T08:26:21;99011.31;;;6.27;46.49
77047;BME280;65977;56.380;44.022;2023-03-03T08:28:48;99002.72;;;6.35;46.43
77047;BME280;65977;56.380;44.022;2023-03-03T08:31:16;99002.84;;;6.43;46.36
77047;BME280;65977;56.380;44.022;2023-03-03T08:34:00;98999.19;;;6.63;46.02
77047;BME280;65977;56.380;44.022;2023-03-03T08:36:27;99002.38;;;6.84;45.78
77047;BME280;65977;56.380;44.022;2023-03-03T08:38:54;98994.94;;;7.07;44.89
77047;BME280;65977;56.380;44.022;2023-03-03T08:41:21;99001.03;;;7.25;44.58
77047;BME280;65977;56.380;44.022;2023-03-03T08:43:48;98995.19;;;7.31;43.99
77047;BME280;65977;56.380;44.022;2023-03-03T08:46:15;98995.97;;;7.41;43.81
77047;BME280;65977;56.380;44.022;2023-03-03T08:48:42;99000.19;;;7.52;43.63
77047;BME280;65977;56.380;44.022;2023-03-03T08:51:10;98992.97;;;7.54;43.62
77047;BME280;65977;56.380;44.022;2023-03-03T08:53:37;99000.75;;;7.63;43.66
77047;BME280;65977;56.380;44.022;2023-03-03T08:56:04;98997.53;;;7.70;43.27
77047;BME280;65977;56.380;44.022;2023-03-03T08:58:32;98995.00;;;7.78;43.35
77047;BME280;65977;56.380;44.022;2023-03-03T09:01:02;98999.31;;;7.87;43.13
77047;BME280;65977;56.380;44.022;2023-03-03T09:03:30;98995.41;;;7.91;43.04
77047;BME280;65977;56.380;44.022;2023-03-03T09:05:57;98999.84;;;7.90;43.04
77047;BME280;65977;56.380;44.022;2023-03-03T09:08:24;98993.84;;;7.98;43.16
77047;BME280;65977;56.380;44.022;2023-03-03T09:10:51;99001.63;;;8.07;42.74
77047;BME280;65977;56.380;44.022;2023-03-03T09:13:19;98993.94;;;8.14;42.89
77047;BME280;65977;56.380;44.022;2023-03-03T09:15:47;99004.97;;;8.17;42.11
77047;BME280;65977;56.380;44.022;2023-03-03T09:18:24;98994.00;;;8.22;42.24
77047;BME280;65977;56.380;44.022;2023-03-03T09:20:54;99002.16;;;8.37;42.03
77047;BME280;65977;56.380;44.022;2023-03-03T09:23:32;98999.81;;;8.51;41.69
77047;BME280;65977;56.380;44.022;2023-03-03T09:28:41;99001.94;;;8.81;40.57
77047;BME280;65977;56.380;44.022;2023-03-03T09:31:42;99000.13;;;8.82;40.63
77047;BME280;65977;56.380;44.022;2023-03-03T09:37:27;98999.00;;;8.84;40.79
77047;BME280;65977;56.380;44.022;2023-03-03T09:39:55;98996.34;;;8.84;40.88
77047;BME280;65977;56.380;44.022;2023-03-03T09:42:36;99002.28;;;8.86;40.48
77047;BME280;65977;56.380;44.022;2023-03-03T09:45:29;98990.75;;;8.87;40.61
77047;BME280;65977;56.380;44.022;2023-03-03T09:51:03;98997.16;;;8.85;40.67
77047;BME280;65977;56.380;44.022;2023-03-03T09:56:49;98995.91;;;8.97;40.30
77047;BME280;65977;56.380;44.022;2023-03-03T09:59:31;99003.63;;;8.99;39.88
77047;BME280;65977;56.380;44.022;2023-03-03T10:02:31;98987.50;;;8.94;39.76
77047;BME280;65977;56.380;44.022;2023-03-03T10:11:01;99002.47;;;9.51;37.88
77047;BME280;65977;56.380;44.022;2023-03-03T10:18:35;98998.41;;;9.89;37.82
77047;BME280;65977;56.380;44.022;2023-03-03T10:24:03;98992.94;;;10.14;37.37
77047;BME280;65977;56.380;44.022;2023-03-03T10:32:38;99005.78;;;11.89;34.41
77047;BME280;65977;56.380;44.022;2023-03-03T10:41:18;99002.66;;;10.46;35.48
77047;BME280;65977;56.380;44.022;2023-03-03T10:44:32;99000.19;;;9.80;35.86
77047;BME280;65977;56.380;44.022;2023-03-03T10:50:14;98996.91;;;9.70;36.77
77047;BME280;65977;56.380;44.022;2023-03-03T10:52:52;98997.38;;;9.74;36.62
77047;BME280;65977;56.380;44.022;2023-03-03T10:58:03;98996.88;;;9.62;37.13
77047;BME280;65977;56.380;44.022;2023-03-03T11:08:52;98986.81;;;9.49;36.52
77047;BME280;65977;56.380;44.022;2023-03-03T11:15:08;98965.25;;;11.12;35.50
77047;BME280;65977;56.380;44.022;2023-03-03T11:17:25;98967.53;;;12.43;33.88
77047;BME280;65977;56.380;44.022;2023-03-03T11:22:48;98961.94;;;15.94;29.62
77047;BME280;65977;56.380;44.022;2023-03-03T11:25:26;98970.69;;;17.68;25.48
77047;BME280;65977;56.380;44.022;2023-03-03T11:31:08;98963.13;;;19.66;22.19
77047;BME280;65977;56.380;44.022;2023-03-03T11:34:21;98974.78;;;18.51;23.77
77047;BME280;65977;56.380;44.022;2023-03-03T11:37:03;98972.84;;;17.02;25.18
77047;BME280;65977;56.380;44.022;2023-03-03T11:39:32;98986.50;;;15.82;26.77
77047;BME280;65977;56.380;44.022;2023-03-03T11:44:49;98979.13;;;13.72;28.95
77047;BME280;65977;56.380;44.022;2023-03-03T11:47:26;98985.38;;;12.79;29.75
77047;BME280;65977;56.380;44.022;2023-03-03T11:55:35;98998.97;;;10.63;32.72
77047;BME280;65977;56.380;44.022;2023-03-03T12:03:44;98991.13;;;9.75;34.04
77047;BME280;65977;56.380;44.022;2023-03-03T12:06:23;98991.28;;;9.89;33.96
77047;BME280;65977;56.380;44.022;2023-03-03T12:12:14;98989.00;;;9.86;33.57
77047;BME280;65977;56.380;44.022;2023-03-03T12:26:01;98978.09;;;9.97;33.85
77047;BME280;65977;56.380;44.022;2023-03-03T12:28:42;98977.59;;;9.70;33.91
77047;BME280;65977;56.380;44.022;2023-03-03T12:36:59;98975.97;;;9.03;35.09
77047;BME280;65977;56.380;44.022;2023-03-03T12:39:47;98984.00;;;8.85;35.86
77047;BME280;65977;56.380;44.022;2023-03-03T12:46:07;98975.84;;;8.11;36.70
77047;BME280;65977;56.380;44.022;2023-03-03T12:48:43;98975.88;;;7.76;37.55
77047;BME280;65977;56.380;44.022;2023-03-03T13:02:01;98986.91;;;6.81;39.95
77047;BME280;65977;56.380;44.022;2023-03-03T13:07:18;98986.06;;;6.63;40.84
77047;BME280;65977;56.380;44.022;2023-03-03T13:10:17;98983.03;;;6.58;40.56
77047;BME280;65977;56.380;44.022;2023-03-03T13:15:42;98987.81;;;6.35;40.92
77047;BME280;65977;56.380;44.022;2023-03-03T13:27:04;98981.53;;;5.71;44.34
77047;BME280;65977;56.380;44.022;2023-03-03T13:29:43;98980.47;;;5.64;44.11
77047;BME280;65977;56.380;44.022;2023-03-03T13:32:19;98979.75;;;5.62;44.27
77047;BME280;65977;56.380;44.022;2023-03-03T13:34:57;98974.66;;;5.60;45.56
77047;BME280;65977;56.380;44.022;2023-03-03T13:37:31;98982.09;;;5.55;46.44
77047;BME280;65977;56.380;44.022;2023-03-03T13:40:15;98976.44;;;5.50;46.15
77047;BME280;65977;56.380;44.022;2023-03-03T13:42:47;98981.13;;;5.47;46.12
77047;BME280;65977;56.380;44.022;2023-03-03T13:45:24;98978.50;;;5.37;46.20
77047;BME280;65977;56.380;44.022;2023-03-03T13:48:22;98977.25;;;5.32;47.30
77047;BME280;65977;56.380;44.022;2023-03-03T13:51:01;98977.13;;;5.24;47.59
77047;BME280;65977;56.380;44.022;2023-03-03T14:08:00;98977.00;;;4.66;51.37
77047;BME280;65977;56.380;44.022;2023-03-03T14:10:37;98971.72;;;4.57;51.90
77047;BME280;65977;56.380;44.022;2023-03-03T14:13:11;98971.81;;;4.45;52.63
77047;BME280;65977;56.380;44.022;2023-03-03T14:15:54;98982.50;;;4.33;53.21
77047;BME280;65977;56.380;44.022;2023-03-03T14:21:08;98979.59;;;4.06;54.60
77047;BME280;65977;56.380;44.022;2023-03-03T14:23:52;98981.19;;;3.97;54.93
77047;BME280;65977;56.380;44.022;2023-03-03T14:26:23;98990.50;;;3.90;54.27
77047;BME280;65977;56.380;44.022;2023-03-03T14:29:10;98990.31;;;3.82;56.52
77047;BME280;65977;56.380;44.022;2023-03-03T14:31:41;98982.88;;;3.77;55.41
77047;BME280;65977;56.380;44.022;2023-03-03T14:36:57;98986.94;;;3.70;54.73
77047;BME280;65977;56.380;44.022;2023-03-03T14:39:39;98981.28;;;3.65;56.03
77047;BME280;65977;56.380;44.022;2023-03-03T14:44:59;98978.84;;;3.53;57.59
77047;BME280;65977;56.380;44.022;2023-03-03T14:47:30;98981.56;;;3.51;58.29
77047;BME280;65977;56.380;44.022;2023-03-03T14:49:57;98986.22;;;3.48;57.63
77047;BME280;65977;56.380;44.022;2023-03-03T14:52:28;98988.25;;;3.44;57.47
77047;BME280;65977;56.380;44.022;2023-03-03T14:54:57;98984.94;;;3.42;57.18
77047;BME280;65977;56.380;44.022;2023-03-03T14:57:38;98988.72;;;3.38;58.31
77047;BME280;65977;56.380;44.022;2023-03-03T15:02:45;98994.22;;;3.35;57.48
77047;BME280;65977;56.380;44.022;2023-03-03T15:05:31;98997.06;;;3.32;58.32
77047;BME280;65977;56.380;44.022;2023-03-03T15:10:40;98983.56;;;3.27;57.09
77047;BME280;65977;56.380;44.022;2023-03-03T15:16:16;98990.06;;;3.33;58.34
77047;BME280;65977;56.380;44.022;2023-03-03T15:21:33;98994.09;;;3.37;57.95
77047;BME280;65977;56.380;44.022;2023-03-03T15:24:29;99002.16;;;3.34;58.68
77047;BME280;65977;56.380;44.022;2023-03-03T15:27:00;99011.75;;;3.33;58.27
77047;BME280;65977;56.380;44.022;2023-03-03T15:32:35;99006.09;;;3.28;58.85
77047;BME280;65977;56.380;44.022;2023-03-03T15:35:21;99013.69;;;3.31;58.81
77047;BME280;65977;56.380;44.022;2023-03-03T15:41:02;99012.59;;;3.34;58.37
77047;BME280;65977;56.380;44.022;2023-03-03T15:43:51;99019.59;;;3.33;59.56
77047;BME280;65977;56.380;44.022;2023-03-03T15:49:23;99010.69;;;3.36;59.00
77047;BME280;65977;56.380;44.022;2023-03-03T15:55:05;99012.75;;;3.32;59.67
77047;BME280;65977;56.380;44.022;2023-03-03T16:00:52;99022.22;;;3.33;59.02
77047;BME280;65977;56.380;44.022;2023-03-03T16:03:26;99019.03;;;3.30;59.26
77047;BME280;65977;56.380;44.022;2023-03-03T16:06:23;99020.09;;;3.27;60.22
77047;BME280;65977;56.380;44.022;2023-03-03T16:11:54;99028.03;;;3.26;59.46
77047;BME280;65977;56.380;44.022;2023-03-03T16:33:32;99035.09;;;3.14;60.53
77047;BME280;65977;56.380;44.022;2023-03-03T16:44:45;99032.38;;;3.04;60.96
77047;BME280;65977;56.380;44.022;2023-03-03T16:52:44;99023.16;;;2.89;60.82
77047;BME280;65977;56.380;44.022;2023-03-03T16:55:24;99034.44;;;2.90;60.56
77047;BME280;65977;56.380;44.022;2023-03-03T17:03:37;99029.69;;;2.95;60.70
77047;BME280;65977;56.380;44.022;2023-03-03T17:06:18;99029.53;;;2.96;60.47
77047;BME280;65977;56.380;44.022;2023-03-03T17:17:10;99021.72;;;3.07;60.35
77047;BME280;65977;56.380;44.022;2023-03-03T17:19:52;99019.44;;;3.14;60.41
77047;BME280;65977;56.380;44.022;2023-03-03T17:25:20;99027.13;;;3.15;60.67
77047;BME280;65977;56.380;44.022;2023-03-03T17:33:25;99027.59;;;3.20;59.89
77047;BME280;65977;56.380;44.022;2023-03-03T17:36:11;99027.59;;;3.20;59.30
77047;BME280;65977;56.380;44.022;2023-03-03T17:42:13;99030.81;;;3.13;59.94